createdAt,value
2019-05-13T00:04:07.620Z,95.20
2019-05-13T00:09:09.108Z,95.00
2019-05-13T00:14:10.633Z,95.30
2019-05-13T00:19:14.246Z,95.27
2019-05-13T00:24:15.688Z,95.44
2019-05-13T00:29:18.322Z,95.65
2019-05-13T00:34:19.806Z,94.90
2019-05-13T00:39:21.607Z,95.23
2019-05-13T00:44:24.450Z,95.61
2019-05-13T00:49:26.058Z,95.26
2019-05-13T00:54:27.536Z,95.17
2019-05-13T00:59:29.079Z,95.29
2019-05-13T01:04:30.558Z,95.32
2019-05-13T01:09:34.068Z,95.58
2019-05-13T01:14:35.438Z,95.85
2019-05-13T01:19:37.421Z,95.76
2019-05-13T01:24:38.894Z,95.53
2019-05-13T01:29:40.531Z,95.43
2019-05-13T01:34:44.215Z,95.59
2019-05-13T01:39:45.435Z,95.37
2019-05-13T01:44:46.956Z,95.48
2019-05-13T01:49:48.429Z,95.87
2019-05-13T01:54:50.000Z,95.34
2019-05-13T01:59:53.821Z,95.41
2019-05-13T02:04:55.067Z,95.29
2019-05-13T02:09:57.866Z,95.03
2019-05-13T02:14:59.542Z,95.28
2019-05-13T02:20:03.913Z,95.10
2019-05-13T02:25:06.298Z,95.38
2019-05-13T02:30:08.288Z,95.12
2019-05-13T02:35:13.467Z,95.32
2019-05-13T02:40:14.002Z,95.27
2019-05-13T02:45:16.179Z,95.16
2019-05-13T02:50:18.080Z,95.21
2019-05-13T02:55:22.185Z,95.50
2019-05-13T03:00:23.780Z,95.58
2019-05-13T03:05:25.425Z,95.52
2019-05-13T03:10:27.010Z,95.00
2019-05-13T03:15:32.758Z,96.06
2019-05-13T03:20:34.626Z,95.88
2019-05-13T03:25:36.105Z,95.34
2019-05-13T03:30:37.796Z,95.07
2019-05-13T03:35:44.774Z,95.25
2019-05-13T03:40:45.995Z,95.03
2019-05-13T03:45:52.564Z,95.09
2019-05-13T03:50:54.867Z,95.32
2019-05-13T03:55:56.343Z,95.54
2019-05-13T04:00:58.223Z,95.43
2019-05-13T04:06:03.198Z,95.65
2019-05-13T04:11:03.608Z,95.46
2019-05-13T04:16:05.294Z,95.76
2019-05-13T04:21:07.278Z,95.55
2019-05-13T04:26:08.992Z,95.53
2019-05-13T04:31:14.086Z,95.35
2019-05-13T04:36:14.559Z,95.33
2019-05-13T04:41:17.439Z,95.55
2019-05-13T04:46:22.470Z,95.11
2019-05-13T04:51:23.115Z,95.16
2019-05-13T04:56:24.744Z,95.11
2019-05-13T05:02:04.800Z,95.00
2019-05-13T05:07:52.556Z,94.88
2019-05-13T05:13:38.984Z,94.80
2019-05-13T05:19:24.236Z,94.84
2019-05-13T05:24:48.902Z,95.10
2019-05-13T05:30:14.138Z,94.92
2019-05-13T05:35:35.814Z,93.97
2019-05-13T05:40:42.630Z,94.55
2019-05-13T05:45:44.596Z,94.58
2019-05-13T05:50:46.575Z,94.05
2019-05-13T05:55:51.803Z,94.05
2019-05-13T06:00:55.663Z,93.63
2019-05-13T06:05:57.290Z,94.11
2019-05-13T06:11:01.310Z,93.12
2019-05-13T06:16:03.187Z,93.37
2019-05-13T06:21:04.842Z,92.92
2019-05-13T06:26:06.515Z,92.71
2019-05-13T06:31:08.207Z,92.59
2019-05-13T06:36:11.370Z,92.13
2019-05-13T06:41:14.830Z,93.36
2019-05-13T06:46:16.704Z,91.15
2019-05-13T06:51:18.287Z,91.19
2019-05-13T06:56:21.850Z,91.13
2019-05-13T07:01:23.361Z,92.38
2019-05-13T07:06:27.362Z,90.89
2019-05-13T07:11:28.300Z,92.39
2019-05-13T07:16:31.745Z,91.94
2019-05-13T07:21:33.491Z,92.42
2019-05-13T07:26:35.117Z,91.76
2019-05-13T07:31:36.892Z,91.88
2019-05-13T07:36:38.773Z,91.50
2019-05-13T07:41:42.940Z,91.58
2019-05-13T07:46:44.832Z,91.18
2019-05-13T07:51:46.395Z,92.54
2019-05-13T07:56:47.893Z,92.06
2019-05-13T08:01:51.999Z,90.49
2019-05-13T08:06:52.912Z,91.56
2019-05-13T08:12:05.298Z,90.08
2019-05-13T08:16:57.800Z,89.36
2019-05-13T08:22:01.841Z,89.28
2019-05-13T08:27:02.862Z,90.10
2019-05-13T08:32:04.359Z,89.42
2019-05-13T08:37:06.102Z,89.79
2019-05-13T08:42:16.003Z,89.31
2019-05-13T08:47:12.310Z,88.60
2019-05-13T08:52:13.961Z,89.47
2019-05-13T08:57:15.553Z,88.16
2019-05-13T09:02:17.434Z,87.63
2019-05-13T09:07:23.630Z,89.11
2019-05-13T09:12:32.200Z,88.21
2019-05-13T09:17:28.058Z,88.42
2019-05-13T09:22:31.750Z,86.35
2019-05-13T09:27:33.031Z,86.73
2019-05-13T09:32:34.506Z,84.62
2019-05-13T09:37:36.052Z,87.22
2019-05-13T09:42:49.148Z,87.00
2019-05-13T09:47:41.745Z,85.39
2019-05-13T09:52:43.524Z,85.09
2019-05-13T09:57:45.006Z,86.07
2019-05-13T10:02:46.608Z,83.84
2019-05-13T10:07:48.185Z,83.29
2019-05-13T10:13:07.296Z,83.12
2019-05-13T10:17:53.186Z,82.66
2019-05-13T10:22:54.870Z,85.28
2019-05-13T10:27:56.655Z,78.35
2019-05-13T10:32:59.549Z,81.31
2019-05-13T10:38:04.360Z,82.64
2019-05-13T10:43:06.059Z,80.97
2019-05-13T10:48:10.479Z,79.08
2019-05-13T10:53:12.282Z,80.91
2019-05-13T10:58:14.018Z,78.96
2019-05-13T11:03:15.951Z,76.26
2019-05-13T11:08:17.730Z,75.99
2019-05-13T11:13:22.624Z,74.04
2019-05-13T11:18:24.448Z,77.01
2019-05-13T11:23:26.232Z,77.90
2019-05-13T11:28:28.011Z,74.96
2019-05-13T11:33:31.869Z,73.86
2019-05-13T11:38:33.230Z,70.02
2019-05-13T11:43:34.906Z,72.28
2019-05-13T11:48:36.682Z,74.89
2019-05-13T11:53:38.488Z,64.77
2019-05-13T11:58:43.169Z,69.94
2019-05-13T12:03:43.680Z,68.34
2019-05-13T12:08:50.586Z,64.99
2019-05-13T12:13:52.501Z,65.56
2019-05-13T12:18:53.029Z,67.44
2019-05-13T12:23:54.836Z,69.00
2019-05-13T12:28:56.318Z,70.78
2019-05-13T12:33:57.861Z,65.96
2019-05-13T12:38:59.327Z,67.47
2019-05-13T12:44:01.881Z,63.66
2019-05-13T12:49:04.136Z,66.35
2019-05-13T12:54:06.003Z,67.37
2019-05-13T12:59:07.848Z,64.89
2019-05-13T13:04:11.986Z,65.94
2019-05-13T13:09:13.166Z,66.86
2019-05-13T13:14:16.881Z,64.92
2019-05-13T13:19:18.317Z,69.14
2019-05-13T13:24:23.605Z,67.62
2019-05-13T13:29:24.445Z,65.54
2019-05-13T13:34:26.679Z,68.82
2019-05-13T13:39:28.255Z,65.78
2019-05-13T13:44:34.758Z,63.92
2019-05-13T13:49:34.898Z,68.13
2019-05-13T13:54:36.568Z,65.44
2019-05-13T14:00:11.667Z,66.75
2019-05-13T14:04:42.995Z,67.82
2019-05-13T14:09:44.866Z,68.36
2019-05-13T14:14:46.547Z,66.20
2019-05-13T14:19:48.103Z,67.79
2019-05-13T14:24:51.837Z,66.16
2019-05-13T14:29:52.977Z,68.47
2019-05-13T14:34:54.450Z,65.30
2019-05-13T14:39:56.560Z,64.58
2019-05-13T14:44:58.043Z,65.12
2019-05-13T14:50:01.917Z,66.93
2019-05-13T14:55:05.953Z,65.28
2019-05-13T15:00:09.734Z,65.61
2019-05-13T15:05:12.164Z,66.87
2019-05-13T15:10:14.691Z,66.02
2019-05-13T15:15:16.872Z,65.82
2019-05-13T15:20:21.622Z,65.38
2019-05-13T15:25:22.792Z,65.58
2019-05-13T15:30:24.756Z,67.79
2019-05-13T15:35:26.252Z,69.12
2019-05-13T15:40:31.070Z,69.26
2019-05-13T15:45:32.331Z,67.05
2019-05-13T15:50:33.882Z,64.67
2019-05-13T15:55:35.804Z,65.40
2019-05-13T16:00:37.449Z,63.63
2019-05-13T16:05:39.318Z,63.47
2019-05-13T16:10:42.035Z,66.29
2019-05-13T16:15:43.659Z,67.41
2019-05-13T16:20:45.502Z,70.09
2019-05-13T16:25:47.101Z,70.38
2019-05-13T16:30:51.393Z,71.45
2019-05-13T16:35:52.059Z,72.64
2019-05-13T16:40:53.539Z,75.99
2019-05-13T16:45:55.230Z,77.16
2019-05-13T16:50:57.023Z,78.68
2019-05-13T16:56:01.501Z,79.67
2019-05-13T17:01:02.876Z,77.43
2019-05-13T17:06:04.818Z,77.84
2019-05-13T17:11:06.777Z,78.44
2019-05-13T17:16:08.254Z,79.62
2019-05-13T17:21:09.883Z,80.07
2019-05-13T17:26:11.753Z,79.98
2019-05-13T17:31:13.694Z,79.80
2019-05-13T17:36:15.174Z,80.83
2019-05-13T17:41:16.754Z,80.30
2019-05-13T17:46:18.255Z,79.80
2019-05-13T17:51:19.843Z,81.91
2019-05-13T17:56:21.771Z,81.75
2019-05-13T18:01:24.659Z,82.80
2019-05-13T18:06:26.136Z,82.59
2019-05-13T18:11:27.615Z,83.27
2019-05-13T18:16:29.415Z,84.51
2019-05-13T18:21:32.003Z,84.13
2019-05-13T18:26:33.918Z,83.66
2019-05-13T18:31:35.415Z,83.72
2019-05-13T18:36:36.990Z,82.77
2019-05-13T18:41:38.465Z,82.29
2019-05-13T18:46:41.728Z,82.73
2019-05-13T18:51:43.683Z,82.43
2019-05-13T18:56:46.598Z,80.17
2019-05-13T19:01:48.578Z,82.22
2019-05-13T19:06:51.756Z,79.34
2019-05-13T19:11:53.575Z,82.90
2019-05-13T19:16:56.281Z,80.40
2019-05-13T19:21:57.958Z,80.92
2019-05-13T19:27:01.610Z,80.25
2019-05-13T19:32:03.179Z,80.92
2019-05-13T19:37:04.698Z,82.13
2019-05-13T19:42:06.399Z,83.29
2019-05-13T19:47:07.979Z,83.84
2019-05-13T19:52:11.945Z,83.80
2019-05-13T19:57:13.732Z,84.71
2019-05-13T20:02:15.457Z,84.31
2019-05-13T20:07:16.928Z,85.78
2019-05-13T20:12:18.512Z,86.12
2019-05-13T20:17:20.164Z,84.05
2019-05-13T20:22:21.749Z,84.54
2019-05-13T20:27:23.336Z,84.78
2019-05-13T20:32:24.947Z,86.49
2019-05-13T20:37:26.651Z,85.41
2019-05-13T20:42:28.317Z,84.35
2019-05-13T20:47:29.999Z,82.72
2019-05-13T20:52:31.621Z,86.15
2019-05-13T20:57:33.663Z,85.13
2019-05-13T21:02:35.187Z,86.40
2019-05-13T21:07:36.656Z,85.23
2019-05-13T21:12:38.131Z,84.67
2019-05-13T21:17:39.700Z,85.66
2019-05-13T21:22:42.392Z,83.86
2019-05-13T21:27:44.148Z,84.14
2019-05-13T21:32:45.731Z,85.20
2019-05-13T21:37:47.211Z,85.38
2019-05-13T21:42:48.708Z,81.54
2019-05-13T21:47:50.188Z,83.96
2019-05-13T21:52:51.670Z,85.23
2019-05-13T21:57:53.195Z,84.49
2019-05-13T22:02:55.011Z,85.39
2019-05-13T22:07:56.597Z,84.92
2019-05-13T22:12:58.079Z,85.86
2019-05-13T22:18:01.798Z,85.86
2019-05-13T22:23:03.692Z,87.06
2019-05-13T22:28:05.246Z,85.40
2019-05-13T22:33:06.728Z,86.07
2019-05-13T22:38:08.618Z,87.42
2019-05-13T22:43:12.158Z,87.63
2019-05-13T22:48:14.970Z,87.85
2019-05-13T22:53:17.890Z,86.02
2019-05-13T22:58:19.426Z,87.82
2019-05-13T23:03:21.121Z,84.95
2019-05-13T23:08:22.610Z,85.99
2019-05-13T23:13:24.079Z,85.59
2019-05-13T23:18:25.631Z,85.26
2019-05-13T23:23:27.325Z,87.28
2019-05-13T23:28:29.062Z,85.44
2019-05-13T23:33:31.393Z,86.00
2019-05-13T23:38:33.152Z,84.94
2019-05-13T23:43:34.634Z,87.57
2019-05-13T23:48:36.229Z,86.75
2019-05-13T23:53:37.724Z,87.77
2019-05-13T23:58:41.226Z,87.66
